GCXO/TFN METAR and TAF weather

Enter ICAO airport designator
Station Type Date Time Source
GCXO METAR 2022/12/04 06:00 UTC NOAA

GCXO 040600Z 24004KT 220V300 9999 FEW025 11/08 Q1009 NOSIG


Station Type Date Time Source
GCXO Decoded METAR 2022/12/04 06:00 UTC NOAA

Tenerife / Los Rodeos, Spain (GCXO) 28-28N 016-19W 617M
Dec 04, 2022 - 01:00 AM EST / 2022.12.04 0600 UTC
Wind: from the WSW (240 degrees) at 5 MPH (4 KT) (direction variable):0
Visibility: greater than 7 mile(s):0
Sky conditions: mostly clear
Temperature: 51 F (11 C)
Dew Point: 46 F (8 C)
Relative Humidity: 81%
Pressure (altimeter): 29.80 in. Hg (1009 hPa)
ob: GCXO 040600Z 24004KT 220V300 9999 FEW025 11/08 Q1009 NOSIG
cycle: 6

Station Type Date Time Source
GCXO TAF 2022/12/04 03:27 UTC NOAA

TAF GCXO 040200Z 0403/0503 27007KT 9999 SCT015 TX19/0414Z TN12/0406Z

Example: see airport list